Time;durP1;ratioP1;P1;durP2;ratioP2;P2;SDS_P1;SDS_P2;PMS_P1;PMS_P2;Temp;Humidity;BMP_temperature;BMP_pressure;BME280_temperature;BME280_humidity;BME280_pressure;Samples;Min_cycle;Max_cycle;Signal;HPM_P1;HPM_P2
2022/05/19 00:01:12;;;;;;;21.20;13.18;;;18.00;99.90;;;;;;5053237;28;20087;-74
2022/05/19 00:03:38;;;;;;;16.98;12.45;;;17.90;99.90;;;;;;5053032;28;20128;-76
2022/05/19 00:06:06;;;;;;;17.35;12.65;;;17.90;99.90;;;;;;5053354;28;20045;-75
2022/05/19 00:08:32;;;;;;;20.67;12.27;;;17.80;99.90;;;;;;5052849;28;20040;-74
2022/05/19 00:11:01;;;;;;;17.13;12.65;;;17.80;99.90;;;;;;5052944;28;20029;-74
2022/05/19 00:13:28;;;;;;;15.13;13.52;;;17.80;99.90;;;;;;5053068;28;20059;-74
2022/05/19 00:15:54;;;;;;;17.17;12.68;;;17.80;99.90;;;;;;5052838;28;20048;-74
2022/05/19 00:18:20;;;;;;;18.50;13.07;;;17.80;99.90;;;;;;5052656;28;20039;-74
2022/05/19 00:20:46;;;;;;;18.73;13.20;;;17.70;99.90;;;;;;5052695;28;20068;-75
2022/05/19 00:23:12;;;;;;;18.58;13.15;;;17.70;99.90;;;;;;5052720;28;20045;-75
2022/05/19 00:25:38;;;;;;;16.05;12.27;;;17.70;99.90;;;;;;5052683;28;20040;-74
2022/05/19 00:28:05;;;;;;;17.73;13.65;;;17.70;99.90;;;;;;5052493;28;20045;-74
2022/05/19 00:30:32;;;;;;;18.02;13.57;;;17.60;99.90;;;;;;5036161;28;20090;-74
2022/05/19 00:32:58;;;;;;;18.88;14.10;;;17.60;99.90;;;;;;5052560;28;20029;-74
2022/05/19 00:35:23;;;;;;;18.60;13.65;;;17.60;99.90;;;;;;5035613;28;20036;-75
2022/05/19 00:37:49;;;;;;;20.67;14.73;;;17.60;99.90;;;;;;5035965;28;20494;-74
2022/05/19 00:40:18;;;;;;;22.20;15.25;;;17.60;99.90;;;;;;5052398;28;20055;-75
2022/05/19 00:42:43;;;;;;;19.08;14.82;;;17.60;99.90;;;;;;5052387;28;20129;-75
2022/05/19 00:45:16;;;;;;;21.50;16.15;;;17.60;99.90;;;;;;5052559;28;20079;-74
2022/05/19 00:47:56;;;;;;;23.05;16.38;;;17.60;99.90;;;;;;5052226;28;20052;-74
2022/05/19 00:50:43;;;;;;;19.48;16.02;;;17.60;99.90;;;;;;5052326;28;20079;-75
2022/05/19 00:53:15;;;;;;;23.08;16.67;;;17.60;99.90;;;;;;5052419;28;20378;-73
2022/05/19 00:55:45;;;;;;;20.58;16.25;;;17.60;99.90;;;;;;5052166;28;20089;-74
2022/05/19 00:58:21;;;;;;;20.23;16.67;;;17.50;99.90;;;;;;5052092;28;20044;-74
2022/05/19 01:00:46;;;;;;;27.05;17.33;;;17.50;99.90;;;;;;5052163;28;20045;-74
2022/05/19 01:03:15;;;;;;;21.27;17.20;;;17.50;99.90;;;;;;5052253;28;20130;-74
2022/05/19 01:05:46;;;;;;;26.13;17.20;;;17.50;99.90;;;;;;5051938;28;20443;-75
2022/05/19 01:08:26;;;;;;;23.15;17.50;;;17.50;99.90;;;;;;5051908;28;20128;-74
2022/05/19 01:10:53;;;;;;;27.77;18.50;;;17.50;99.90;;;;;;5051989;28;20037;-75
2022/05/19 01:13:20;;;;;;;24.73;17.20;;;17.40;99.90;;;;;;5051876;28;20067;-75
2022/05/19 01:15:51;;;;;;;24.27;19.15;;;17.40;99.90;;;;;;5051902;28;20083;-75
2022/05/19 01:18:17;;;;;;;25.42;19.33;;;17.40;99.90;;;;;;5035453;28;20068;-74
2022/05/19 01:20:45;;;;;;;23.70;18.65;;;17.40;99.90;;;;;;5035449;28;20094;-75
2022/05/19 01:23:23;;;;;;;25.73;19.05;;;17.40;99.90;;;;;;5051841;28;20037;-75
2022/05/19 01:26:07;;;;;;;24.02;19.77;;;17.40;99.90;;;;;;5052039;28;20045;-74
2022/05/19 01:28:33;;;;;;;26.30;20.55;;;17.40;99.90;;;;;;5034956;28;20080;-74
2022/05/19 01:30:58;;;;;;;27.77;21.23;;;17.40;99.90;;;;;;5059663;22;20095;-70
2022/05/19 01:33:25;;;;;;;28.13;21.63;;;17.40;99.90;;;;;;5032049;28;20088;-70
2022/05/19 01:35:50;;;;;;;26.65;22.10;;;17.40;99.90;;;;;;5031790;28;20061;-70
2022/05/19 01:38:21;;;;;;;32.28;23.33;;;17.40;99.90;;;;;;5015372;28;20065;-70
2022/05/19 01:40:53;;;;;;;31.40;22.52;;;17.40;99.90;;;;;;5031715;28;20135;-70
2022/05/19 01:43:35;;;;;;;29.95;23.35;;;17.30;99.90;;;;;;5015407;28;20092;-70
2022/05/19 01:46:21;;;;;;;32.33;24.98;;;17.40;99.90;;;;;;5032713;28;20041;-70
2022/05/19 01:49:10;;;;;;;33.90;26.98;;;17.40;99.90;;;;;;5035639;28;20041;-70
2022/05/19 01:51:47;;;;;;;34.58;26.63;;;17.40;99.90;;;;;;5035849;28;20485;-70
2022/05/19 01:54:45;;;;;;;35.72;26.23;;;17.30;99.90;;;;;;5035852;28;20099;-70
2022/05/19 01:57:26;;;;;;;37.75;28.30;;;17.30;99.90;;;;;;5019311;28;20517;-71
2022/05/19 02:00:10;;;;;;;33.42;28.42;;;17.30;99.90;;;;;;5035665;28;20408;-70
2022/05/19 02:02:48;;;;;;;34.10;27.30;;;17.30;99.90;;;;;;5035441;28;20462;-70
2022/05/19 02:05:19;;;;;;;33.78;27.77;;;17.30;99.90;;;;;;5035535;28;20041;-71
2022/05/19 02:07:50;;;;;;;35.53;27.90;;;17.30;99.90;;;;;;5018839;28;20516;-71
2022/05/19 02:10:25;;;;;;;34.70;27.60;;;17.30;99.90;;;;;;5035313;28;20045;-70
2022/05/19 02:12:51;;;;;;;35.35;28.00;;;17.30;99.90;;;;;;5035256;28;20513;-70
2022/05/19 02:15:20;;;;;;;36.92;30.23;;;17.30;99.90;;;;;;5035189;28;20390;-70
2022/05/19 02:17:48;;;;;;;35.80;29.90;;;17.30;99.90;;;;;;5018872;28;20497;-70
2022/05/19 02:20:17;;;;;;;35.35;31.08;;;17.30;99.90;;;;;;5018525;28;20053;-70
2022/05/19 02:22:44;;;;;;;38.15;30.55;;;17.30;99.90;;;;;;5035069;28;20038;-70
2022/05/19 02:25:19;;;;;;;39.42;31.70;;;17.30;99.90;;;;;;5035528;28;20037;-70
2022/05/19 02:28:06;;;;;;;38.72;31.73;;;17.20;99.90;;;;;;5035086;28;20045;-70
2022/05/19 02:30:35;;;;;;;39.33;32.05;;;17.20;99.90;;;;;;5035008;28;20480;-70
2022/05/19 02:33:01;;;;;;;43.28;34.33;;;17.20;99.90;;;;;;5018374;28;20041;-70
2022/05/19 02:35:28;;;;;;;42.50;33.15;;;17.20;99.90;;;;;;5034838;28;20030;-70
2022/05/19 02:37:55;;;;;;;42.65;34.03;;;17.20;99.90;;;;;;5034731;28;20048;-70
2022/05/19 02:40:23;;;;;;;42.15;33.67;;;17.10;99.90;;;;;;5034674;28;20082;-70
2022/05/19 02:42:49;;;;;;;44.00;35.17;;;17.10;99.90;;;;;;5034655;28;20567;-70
2022/05/19 02:45:17;;;;;;;45.38;35.45;;;17.10;99.90;;;;;;5034602;28;20045;-70
2022/05/19 02:47:43;;;;;;;49.80;37.70;;;17.10;99.90;;;;;;5017997;28;20409;-70
2022/05/19 02:50:11;;;;;;;44.97;36.75;;;17.10;99.90;;;;;;5034463;28;20030;-70
2022/05/19 02:52:36;;;;;;;48.17;39.50;;;17.10;99.90;;;;;;5034449;28;20038;-70
2022/05/19 02:55:03;;;;;;;46.55;37.78;;;17.10;99.90;;;;;;5034429;28;20107;-70
2022/05/19 02:57:28;;;;;;;49.60;38.15;;;17.00;99.90;;;;;;5034620;28;20120;-70
2022/05/19 02:59:54;;;;;;;51.03;40.65;;;17.00;99.90;;;;;;5034278;28;20477;-70
2022/05/19 03:02:19;;;;;;;49.35;38.83;;;17.00;99.90;;;;;;5034297;28;20042;-70
2022/05/19 03:04:45;;;;;;;48.95;40.80;;;17.00;99.90;;;;;;5034285;28;20041;-70
2022/05/19 03:07:10;;;;;;;50.15;38.20;;;17.00;99.90;;;;;;5034451;28;20046;-70
2022/05/19 03:09:37;;;;;;;54.10;40.80;;;17.10;99.90;;;;;;5034153;28;20374;-70
2022/05/19 03:12:03;;;;;;;46.55;41.63;;;17.10;99.90;;;;;;5034345;28;20041;-71
2022/05/19 03:14:30;;;;;;;52.72;41.63;;;17.00;99.90;;;;;;5017570;28;20033;-71
2022/05/19 03:16:56;;;;;;;51.28;42.08;;;17.10;99.90;;;;;;5034025;28;20041;-70
2022/05/19 03:19:21;;;;;;;53.65;41.55;;;17.00;99.90;;;;;;5033910;28;20044;-70
2022/05/19 03:21:47;;;;;;;51.50;42.05;;;17.10;99.90;;;;;;5033934;28;20045;-70
2022/05/19 03:24:12;;;;;;;49.35;41.47;;;17.10;99.90;;;;;;5033986;28;20037;-70
2022/05/19 03:26:38;;;;;;;54.15;41.97;;;17.10;99.90;;;;;;5033879;28;20041;-70
2022/05/19 03:29:04;;;;;;;50.83;43.42;;;17.00;99.90;;;;;;5017066;28;20045;-70
2022/05/19 03:31:30;;;;;;;57.38;43.80;;;17.00;99.90;;;;;;5033855;28;20611;-71
2022/05/19 03:33:55;;;;;;;50.70;43.38;;;17.00;99.90;;;;;;5033761;28;20073;-71
2022/05/19 03:36:21;;;;;;;49.92;43.83;;;17.00;99.90;;;;;;5033680;28;20033;-71
2022/05/19 03:38:47;;;;;;;57.55;43.80;;;17.00;99.90;;;;;;5033706;28;20079;-70
2022/05/19 03:41:13;;;;;;;54.08;41.83;;;17.00;99.90;;;;;;5033555;28;20469;-70
2022/05/19 03:43:39;;;;;;;52.88;42.70;;;17.00;99.90;;;;;;5034798;28;20037;-70
2022/05/19 03:46:04;;;;;;;51.25;42.78;;;17.00;99.90;;;;;;5033528;28;20069;-70
2022/05/19 03:48:35;;;;;;;52.00;43.35;;;17.00;99.90;;;;;;5033344;28;20045;-70
2022/05/19 03:51:04;;;;;;;51.13;43.85;;;17.00;99.90;;;;;;5016908;28;20116;-70
2022/05/19 03:53:30;;;;;;;51.00;43.97;;;17.00;99.90;;;;;;5033341;28;20033;-70
2022/05/19 03:55:55;;;;;;;51.95;42.85;;;17.00;99.90;;;;;;5034592;28;20041;-70
2022/05/19 03:58:21;;;;;;;51.33;43.13;;;17.00;99.90;;;;;;5016730;28;20044;-70
2022/05/19 04:00:47;;;;;;;54.65;43.65;;;17.00;99.90;;;;;;5033124;28;20045;-71
2022/05/19 04:03:12;;;;;;;53.15;44.65;;;17.00;99.90;;;;;;5016669;28;20049;-70
2022/05/19 04:05:38;;;;;;;54.17;42.83;;;17.00;99.90;;;;;;5033084;28;20041;-70
2022/05/19 04:08:04;;;;;;;54.47;43.05;;;17.00;99.90;;;;;;5016403;28;20048;-70
2022/05/19 04:10:30;;;;;;;51.75;41.95;;;17.00;99.90;;;;;;5032946;28;20041;-70
2022/05/19 04:12:56;;;;;;;53.35;43.30;;;17.10;99.90;;;;;;5032982;28;20493;-70
2022/05/19 04:15:21;;;;;;;52.92;44.97;;;17.10;99.90;;;;;;5016510;28;20076;-70
2022/05/19 04:17:47;;;;;;;52.28;43.15;;;17.10;99.90;;;;;;5032881;28;20081;-71
2022/05/19 04:20:13;;;;;;;49.60;43.30;;;17.10;99.90;;;;;;5032785;28;20077;-71
2022/05/19 04:22:39;;;;;;;49.58;43.00;;;17.20;99.90;;;;;;5032854;28;20033;-71
2022/05/19 04:25:06;;;;;;;51.95;43.03;;;17.20;99.90;;;;;;5032712;28;20096;-70
2022/05/19 04:27:33;;;;;;;51.08;42.40;;;17.20;99.90;;;;;;5032698;28;20037;-71
2022/05/19 04:29:59;;;;;;;51.08;44.78;;;17.20;99.90;;;;;;5032411;28;20092;-70
2022/05/19 04:32:24;;;;;;;52.35;42.08;;;17.30;99.90;;;;;;5032586;28;20037;-71
2022/05/19 04:34:50;;;;;;;50.28;44.13;;;17.30;99.90;;;;;;5032840;28;20037;-71
2022/05/19 04:37:16;;;;;;;54.65;44.75;;;17.40;99.90;;;;;;5032742;28;20041;-71
2022/05/19 04:39:41;;;;;;;52.80;42.33;;;17.40;99.90;;;;;;5032401;28;20040;-70
2022/05/19 04:42:12;;;;;;;48.03;41.72;;;17.50;99.90;;;;;;5015962;28;20049;-70
2022/05/19 04:44:38;;;;;;;50.25;42.85;;;17.60;99.90;;;;;;5033678;28;20559;-70
2022/05/19 04:47:05;;;;;;;52.50;43.50;;;17.60;99.90;;;;;;5016073;28;20046;-70
2022/05/19 04:49:31;;;;;;;52.40;42.35;;;17.60;99.90;;;;;;5032502;28;20046;-70
2022/05/19 04:51:56;;;;;;;48.03;40.50;;;17.60;99.90;;;;;;5032289;28;20033;-70
2022/05/19 04:54:23;;;;;;;47.08;39.40;;;17.70;99.90;;;;;;5032552;28;20048;-70
2022/05/19 04:56:50;;;;;;;47.72;40.25;;;17.70;99.90;;;;;;5015740;28;20037;-70
2022/05/19 04:59:16;;;;;;;45.75;40.90;;;17.70;99.90;;;;;;5032329;28;20042;-70
2022/05/19 05:01:43;;;;;;;46.50;38.80;;;17.70;99.90;;;;;;5032458;28;20033;-70
2022/05/19 05:04:09;;;;;;;46.55;39.08;;;17.80;99.90;;;;;;5032028;28;20128;-70
2022/05/19 05:06:35;;;;;;;46.17;38.83;;;17.80;99.90;;;;;;5032322;28;20124;-70
2022/05/19 05:09:01;;;;;;;42.90;37.10;;;17.80;99.90;;;;;;5031945;28;20037;-69
2022/05/19 05:11:26;;;;;;;44.17;36.45;;;17.90;99.90;;;;;;5032081;28;20038;-70
2022/05/19 05:13:52;;;;;;;41.58;35.25;;;17.90;99.90;;;;;;5032252;28;20052;-70
2022/05/19 05:16:17;;;;;;;43.20;36.15;;;18.00;99.90;;;;;;5031978;28;20042;-70
2022/05/19 05:18:43;;;;;;;41.30;35.38;;;18.00;99.90;;;;;;5031989;28;20049;-70
2022/05/19 05:21:11;;;;;;;41.78;33.78;;;18.10;99.90;;;;;;5030974;28;20049;-71
2022/05/19 05:23:37;;;;;;;39.83;34.35;;;18.10;99.90;;;;;;5031867;28;20041;-71
2022/05/19 05:26:03;;;;;;;40.42;33.53;;;18.20;99.90;;;;;;5015390;28;20082;-70
2022/05/19 05:28:30;;;;;;;38.42;33.58;;;18.20;99.90;;;;;;5031776;28;20091;-70
2022/05/19 05:30:56;;;;;;;40.08;34.65;;;18.30;99.90;;;;;;5031612;28;20049;-70
2022/05/19 05:33:21;;;;;;;36.95;31.90;;;18.40;99.90;;;;;;5031748;28;20037;-70
2022/05/19 05:35:47;;;;;;;37.70;31.45;;;18.40;99.90;;;;;;5031758;28;20176;-70
2022/05/19 05:38:13;;;;;;;33.80;28.65;;;18.50;99.90;;;;;;5031682;28;20452;-70
2022/05/19 05:40:38;;;;;;;32.10;28.00;;;18.60;99.90;;;;;;5031676;28;20120;-70
2022/05/19 05:43:13;;;;;;;30.77;27.40;;;18.70;99.90;;;;;;5031707;28;20046;-71
2022/05/19 05:45:40;;;;;;;30.20;24.77;;;18.90;99.90;;;;;;5031762;28;20041;-71
2022/05/19 05:48:06;;;;;;;28.38;24.02;;;18.90;99.90;;;;;;5015280;28;20405;-70
2022/05/19 05:50:32;;;;;;;27.45;23.30;;;19.10;99.90;;;;;;5015192;28;20037;-70
2022/05/19 05:52:58;;;;;;;24.25;21.17;;;19.20;99.90;;;;;;5031650;28;20044;-70
2022/05/19 05:55:24;;;;;;;26.70;22.17;;;19.30;99.90;;;;;;5031545;28;20038;-70
2022/05/19 05:57:50;;;;;;;34.53;22.90;;;19.40;99.90;;;;;;5031571;28;20038;-70
2022/05/19 06:00:17;;;;;;;24.27;21.75;;;19.50;99.90;;;;;;5031504;28;20053;-70
2022/05/19 06:02:43;;;;;;;24.77;20.65;;;19.60;99.90;;;;;;5031793;28;20049;-71
2022/05/19 06:05:10;;;;;;;26.17;20.50;;;19.70;99.90;;;;;;5031528;28;20408;-71
2022/05/19 06:07:35;;;;;;;26.13;20.67;;;19.70;99.90;;;;;;5031434;28;20567;-70
2022/05/19 06:10:01;;;;;;;24.25;19.23;;;19.70;99.90;;;;;;5014984;28;20041;-70
2022/05/19 06:12:27;;;;;;;22.65;20.25;;;19.70;99.90;;;;;;5015047;28;20038;-70
2022/05/19 06:14:56;;;;;;;23.75;18.90;;;19.70;99.90;;;;;;5014960;28;20038;-71
2022/05/19 06:17:23;;;;;;;20.25;17.33;;;19.80;99.90;;;;;;5014928;28;20087;-70
2022/05/19 06:19:50;;;;;;;22.08;17.33;;;19.80;99.90;;;;;;5031582;28;20095;-70
2022/05/19 06:22:17;;;;;;;18.77;15.13;;;19.90;99.90;;;;;;5031339;28;20042;-70
2022/05/19 06:24:43;;;;;;;22.20;16.42;;;19.90;99.90;;;;;;5015165;28;20033;-70
2022/05/19 06:27:09;;;;;;;20.65;14.68;;;20.00;99.90;;;;;;5031236;28;20123;-70
2022/05/19 06:29:34;;;;;;;17.33;13.63;;;20.00;99.90;;;;;;5031072;28;20520;-70
2022/05/19 06:32:00;;;;;;;15.77;11.38;;;20.10;99.90;;;;;;5032488;28;20444;-71
2022/05/19 06:34:25;;;;;;;13.82;10.65;;;20.20;99.90;;;;;;5034975;28;20060;-70
2022/05/19 06:36:51;;;;;;;15.65;10.23;;;20.40;99.90;;;;;;5018380;28;20038;-70
2022/05/19 06:39:16;;;;;;;13.30;9.88;;;20.50;99.90;;;;;;5034795;28;20132;-70
2022/05/19 06:42:01;;;;;;;14.38;11.00;;;20.60;99.90;;;;;;5034993;28;20041;-70
2022/05/19 06:44:38;;;;;;;17.17;11.73;;;20.60;99.90;;;;;;5034759;28;20084;-70
2022/05/19 06:47:15;;;;;;;18.45;12.57;;;20.70;99.90;;;;;;5034652;28;20045;-70
2022/05/19 06:49:46;;;;;;;16.48;12.63;;;20.70;99.90;;;;;;5034859;28;20064;-70
2022/05/19 06:52:18;;;;;;;19.85;13.07;;;20.60;99.90;;;;;;5034660;28;20037;-70
2022/05/19 06:54:45;;;;;;;18.43;13.50;;;20.50;99.90;;;;;;5034550;28;20494;-70
2022/05/19 06:57:11;;;;;;;18.83;14.30;;;20.40;99.90;;;;;;5018155;28;20084;-70
2022/05/19 06:59:37;;;;;;;20.40;14.50;;;20.40;99.90;;;;;;5034371;28;20045;-70
2022/05/19 07:02:04;;;;;;;21.83;14.50;;;20.30;99.90;;;;;;5034404;28;20034;-70
2022/05/19 07:04:30;;;;;;;19.10;14.05;;;20.20;99.90;;;;;;5034364;28;20497;-70
2022/05/19 07:06:55;;;;;;;20.20;15.40;;;20.20;99.90;;;;;;5017747;28;20048;-70
2022/05/19 07:09:21;;;;;;;19.65;15.95;;;20.10;99.90;;;;;;5034453;28;20071;-69
2022/05/19 07:11:47;;;;;;;21.13;16.17;;;20.00;99.90;;;;;;5034510;28;20386;-70
2022/05/19 07:14:12;;;;;;;18.67;16.45;;;19.90;99.90;;;;;;5034234;28;20520;-70
2022/05/19 07:16:38;;;;;;;20.67;16.27;;;19.90;99.90;;;;;;5034363;28;20037;-70
2022/05/19 07:21:48;;;;;;;21.38;16.98;;;19.80;99.90;;;;;;5034233;28;20045;-70
2022/05/19 07:24:18;;;;;;;21.23;17.13;;;19.80;99.90;;;;;;5034276;28;20046;-70
2022/05/19 07:26:46;;;;;;;25.55;17.98;;;19.80;99.90;;;;;;5034218;28;20067;-69
2022/05/19 07:29:12;;;;;;;23.40;17.73;;;19.80;99.90;;;;;;5033546;28;20043;-69
2022/05/19 07:31:37;;;;;;;20.70;18.60;;;19.80;99.90;;;;;;5033122;28;20042;-69
2022/05/19 07:34:05;;;;;;;22.50;18.00;;;19.70;99.90;;;;;;5033052;28;20490;-69
2022/05/19 07:36:32;;;;;;;22.42;17.17;;;19.70;99.90;;;;;;5032766;28;20038;-69
2022/05/19 07:38:59;;;;;;;21.95;17.90;;;19.60;99.90;;;;;;5032657;28;20053;-69
2022/05/19 07:41:26;;;;;;;23.00;17.10;;;19.50;99.90;;;;;;5032675;28;20045;-69
2022/05/19 07:43:53;;;;;;;20.70;16.80;;;19.50;99.90;;;;;;5031730;28;20073;-69
2022/05/19 07:46:19;;;;;;;23.42;18.23;;;19.50;99.90;;;;;;5032610;28;20135;-69
2022/05/19 07:48:44;;;;;;;23.58;18.15;;;19.50;99.90;;;;;;5032443;28;20127;-69
2022/05/19 07:51:10;;;;;;;25.15;18.38;;;19.50;99.90;;;;;;5015990;28;20037;-69
2022/05/19 07:53:36;;;;;;;25.42;18.85;;;19.50;99.90;;;;;;5032806;28;20131;-69
2022/05/19 07:56:03;;;;;;;25.23;19.05;;;19.50;99.90;;;;;;5016211;28;20034;-69
2022/05/19 07:58:31;;;;;;;25.63;20.48;;;19.50;99.90;;;;;;5032461;28;20037;-69
2022/05/19 08:00:59;;;;;;;29.17;20.85;;;19.60;99.90;;;;;;5032258;28;20444;-68
2022/05/19 08:03:25;;;;;;;22.27;19.50;;;19.70;99.90;;;;;;5032301;28;20112;-68
2022/05/19 08:05:51;;;;;;;28.60;20.85;;;19.70;99.90;;;;;;5032291;28;20041;-68
2022/05/19 08:08:17;;;;;;;23.67;19.23;;;19.70;99.90;;;;;;5032192;28;20498;-69
2022/05/19 08:10:43;;;;;;;22.73;20.48;;;19.80;99.90;;;;;;5032154;28;20041;-69
2022/05/19 08:15:53;;;;;;;26.35;19.80;;;19.80;99.90;;;;;;5032102;28;20490;-69
2022/05/19 08:18:20;;;;;;;24.88;21.80;;;19.80;99.90;;;;;;5032315;28;20041;-69
2022/05/19 08:20:49;;;;;;;24.02;20.27;;;19.80;99.90;;;;;;5031959;28;20502;-69
2022/05/19 08:23:25;;;;;;;24.27;20.35;;;19.80;99.90;;;;;;5032051;28;20095;-69
2022/05/19 08:25:50;;;;;;;21.55;19.30;;;19.80;99.90;;;;;;5032022;28;20041;-69
2022/05/19 08:28:18;;;;;;;20.67;17.98;;;19.80;99.90;;;;;;5031866;28;20045;-69
2022/05/19 08:30:47;;;;;;;20.13;17.75;;;19.80;99.90;;;;;;4980805;28;1021264;-69
2022/05/19 08:33:14;;;;;;;19.90;17.65;;;19.90;99.90;;;;;;5032696;28;20049;-69
2022/05/19 08:35:40;;;;;;;20.67;18.08;;;20.00;99.90;;;;;;5032648;28;20081;-69
2022/05/19 08:38:06;;;;;;;20.02;17.75;;;20.00;99.90;;;;;;5032586;28;20041;-69
2022/05/19 08:40:39;;;;;;;22.27;17.48;;;20.10;99.90;;;;;;5032749;28;20120;-69
2022/05/19 08:43:06;;;;;;;20.98;17.77;;;20.20;99.90;;;;;;5016137;28;20080;-69
2022/05/19 08:45:38;;;;;;;18.90;16.90;;;20.20;99.90;;;;;;5032488;28;20103;-69
2022/05/19 08:48:10;;;;;;;19.30;16.77;;;20.40;99.90;;;;;;5016041;28;20084;-69
2022/05/19 08:50:59;;;;;;;18.42;16.35;;;20.40;99.90;;;;;;5032640;28;20077;-70
2022/05/19 08:53:30;;;;;;;17.35;14.38;;;20.50;99.90;;;;;;5032327;28;20052;-70
2022/05/19 08:56:27;;;;;;;19.65;16.17;;;20.60;99.90;;;;;;5032148;28;20080;-70
2022/05/19 08:59:05;;;;;;;16.10;13.73;;;20.60;99.90;;;;;;5032309;28;20120;-70
2022/05/19 09:01:59;;;;;;;17.80;15.02;;;20.70;99.90;;;;;;5032258;28;20081;-70
2022/05/19 09:05:00;;;;;;;16.55;14.30;;;20.80;99.90;;;;;;5032436;28;20045;-70
2022/05/19 09:10:35;;;;;;;15.80;14.10;;;21.00;99.90;;;;;;5029254;28;20046;-70
2022/05/19 09:13:17;;;;;;;16.05;14.35;;;21.10;99.90;;;;;;5032054;28;20045;-70
2022/05/19 09:15:45;;;;;;;19.67;14.60;;;21.20;99.90;;;;;;5032119;28;20048;-70
2022/05/19 09:18:16;;;;;;;17.52;13.77;;;21.30;99.90;;;;;;5032011;28;20802;-70
2022/05/19 09:20:54;;;;;;;16.42;13.55;;;21.40;99.90;;;;;;5033453;28;20048;-70
2022/05/19 09:23:21;;;;;;;15.48;13.63;;;21.50;99.90;;;;;;5031955;28;20045;-70
2022/05/19 09:26:03;;;;;;;16.13;13.18;;;21.50;99.90;;;;;;5031899;28;20073;-70
2022/05/19 09:28:29;;;;;;;16.58;12.57;;;21.60;99.90;;;;;;5031852;28;20052;-70
2022/05/19 09:30:56;;;;;;;12.90;11.57;;;21.70;99.90;;;;;;5031978;28;20167;-70
2022/05/19 09:33:32;;;;;;;14.80;11.00;;;21.80;99.90;;;;;;5031825;28;20128;-70
2022/05/19 09:36:00;;;;;;;16.15;12.18;;;21.90;99.90;;;;;;5031838;28;20033;-69
2022/05/19 09:38:47;;;;;;;16.38;11.63;;;22.10;99.90;;;;;;5031812;28;20103;-69
2022/05/19 09:41:36;;;;;;;14.75;12.50;;;22.30;99.90;;;;;;5031714;28;20050;-69
2022/05/19 09:44:04;;;;;;;12.93;11.52;;;22.40;99.90;;;;;;5031777;28;20037;-69
2022/05/19 09:46:42;;;;;;;14.15;11.88;;;22.40;99.90;;;;;;5015279;28;20037;-70
2022/05/19 09:49:29;;;;;;;16.10;12.48;;;22.60;99.90;;;;;;5031546;28;20046;-70
2022/05/19 09:52:00;;;;;;;14.60;11.75;;;22.70;99.90;;;;;;5031701;28;20401;-70
2022/05/19 09:54:30;;;;;;;14.32;10.30;;;22.90;99.90;;;;;;5031772;28;20046;-70
2022/05/19 09:57:05;;;;;;;13.85;10.15;;;23.10;99.90;;;;;;5031907;28;20045;-70
2022/05/19 09:59:37;;;;;;;11.05;9.32;;;23.20;99.90;;;;;;5031516;28;20124;-70
2022/05/19 10:02:25;;;;;;;12.60;9.05;;;23.30;99.90;;;;;;5031587;28;20038;-70
2022/05/19 10:04:57;;;;;;;12.23;9.30;;;23.40;99.90;;;;;;5015159;28;20041;-70
2022/05/19 10:07:34;;;;;;;11.98;7.93;;;23.40;99.90;;;;;;5033083;28;20628;-70
2022/05/19 10:10:00;;;;;;;14.02;8.10;;;23.50;99.90;;;;;;5018794;28;20053;-70
2022/05/19 10:12:41;;;;;;;10.65;7.80;;;23.50;99.90;;;;;;5035328;28;20049;-70
2022/05/19 10:15:14;;;;;;;10.18;7.68;;;23.50;99.90;;;;;;5035275;28;20125;-69
2022/05/19 10:18:04;;;;;;;10.07;7.40;;;23.50;99.90;;;;;;5035406;28;20075;-69
2022/05/19 10:20:45;;;;;;;9.02;5.03;;;23.40;99.90;;;;;;5035133;28;20044;-70
2022/05/19 10:23:29;;;;;;;7.10;4.95;;;23.30;99.90;;;;;;5035430;28;20067;-70
2022/05/19 10:26:20;;;;;;;6.85;6.05;;;23.30;99.90;;;;;;5035360;28;20049;-70
2022/05/19 10:32:30;;;;;;;9.90;8.70;;;23.20;99.90;;;;;;5034953;28;20053;-69
2022/05/19 10:35:02;;;;;;;11.23;8.55;;;23.30;99.90;;;;;;5029998;28;20579;-69
2022/05/19 10:37:33;;;;;;;9.23;7.35;;;23.30;99.90;;;;;;5018390;28;20128;-70
2022/05/19 10:40:19;;;;;;;9.38;7.30;;;23.40;99.90;;;;;;5018623;28;20053;-70
2022/05/19 10:43:06;;;;;;;7.80;7.00;;;23.60;99.90;;;;;;5034827;28;20076;-70
2022/05/19 10:45:42;;;;;;;9.10;6.55;;;23.80;99.90;;;;;;5036073;28;20118;-69
2022/05/19 10:48:25;;;;;;;9.73;7.32;;;24.20;99.90;;;;;;5034584;28;20052;-70
2022/05/19 10:50:57;;;;;;;11.68;8.20;;;24.60;99.90;;;;;;5035510;28;20041;-70
2022/05/19 10:53:49;;;;;;;11.30;7.07;;;24.80;99.90;;;;;;5034657;28;20037;-70
2022/05/19 10:56:28;;;;;;;9.45;8.27;;;24.80;99.90;;;;;;5005137;28;20390;-70
2022/05/19 10:59:10;;;;;;;8.63;7.75;;;25.00;99.90;;;;;;5034447;28;20053;-70
2022/05/19 11:01:50;;;;;;;10.38;8.90;;;25.30;99.90;;;;;;5034728;28;20424;-70
2022/05/19 11:04:34;;;;;;;13.35;9.60;;;25.60;99.90;;;;;;5018729;28;20085;-70
2022/05/19 11:07:11;;;;;;;10.82;8.40;;;25.70;99.90;;;;;;5034326;28;20056;-70
2022/05/19 11:09:58;;;;;;;11.18;8.82;;;26.00;99.90;;;;;;5034213;28;20051;-70
2022/05/19 11:12:38;;;;;;;15.35;9.60;;;26.20;99.90;;;;;;5034331;28;20044;-70
2022/05/19 11:15:13;;;;;;;16.00;10.02;;;26.20;99.90;;;;;;5034215;28;20033;-70
2022/05/19 11:17:56;;;;;;;12.00;9.85;;;26.50;99.90;;;;;;5033897;28;20042;-70
2022/05/19 11:20:49;;;;;;;13.05;9.95;;;26.70;99.90;;;;;;5016955;28;20050;-70
2022/05/19 11:23:20;;;;;;;;;;;26.80;99.90;;;;;;5018429;28;20047;-70
2022/05/19 11:28:48;;;;;;;12.30;8.90;;;27.20;99.90;;;;;;5034121;28;20064;-70
2022/05/19 11:31:21;;;;;;;9.20;7.13;;;27.50;99.90;;;;;;5017736;28;20033;-70
2022/05/19 11:33:52;;;;;;;10.07;7.18;;;27.70;99.90;;;;;;5033878;28;20037;-70
2022/05/19 11:36:30;;;;;;;8.52;6.70;;;27.70;99.90;;;;;;5017311;28;20405;-70
2022/05/19 11:39:07;;;;;;;7.97;5.50;;;27.60;98.80;;;;;;5033689;28;20126;-70
2022/05/19 11:41:36;;;;;;;6.63;5.75;;;27.60;99.90;;;;;;5033697;28;20045;-70
2022/05/19 11:44:10;;;;;;;7.78;6.40;;;27.70;99.90;;;;;;5033659;28;20064;-70
2022/05/19 11:46:59;;;;;;;9.27;6.15;;;27.90;99.70;;;;;;5017122;28;20056;-70
2022/05/19 11:55:42;;;;;;;7.35;3.60;;;27.80;96.40;;;;;;5033593;28;20045;-70
2022/05/19 11:58:11;;;;;;;4.65;2.95;;;27.70;96.70;;;;;;5033396;28;20570;-70
2022/05/19 12:00:46;;;;;;;5.50;3.10;;;27.50;97.90;;;;;;5033531;28;20041;-70
2022/05/19 12:03:29;;;;;;;6.32;3.33;;;27.50;96.10;;;;;;5016789;28;20077;-70
2022/05/19 12:05:58;;;;;;;6.28;3.30;;;27.40;95.50;;;;;;5033202;28;20490;-70
2022/05/19 12:08:37;;;;;;;5.38;3.50;;;27.30;96.00;;;;;;5033144;28;20048;-70
2022/05/19 12:11:19;;;;;;;4.75;3.20;;;27.20;95.50;;;;;;5033372;28;20115;-70
2022/05/19 12:14:08;;;;;;;3.80;2.70;;;27.10;95.80;;;;;;5033123;28;20068;-70
2022/05/19 12:17:01;;;;;;;3.78;1.85;;;26.90;96.00;;;;;;5033023;28;20052;-70
2022/05/19 12:19:37;;;;;;;4.30;1.95;;;26.80;95.30;;;;;;5033146;28;20045;-70
2022/05/19 12:22:24;;;;;;;3.65;2.13;;;26.70;92.70;;;;;;5032928;28;20076;-70
2022/05/19 12:25:06;;;;;;;4.68;2.03;;;26.50;94.10;;;;;;5032116;28;20049;-70
2022/05/19 12:27:37;;;;;;;3.83;2.20;;;26.30;90.90;;;;;;5032754;28;20099;-70
2022/05/19 12:33:28;;;;;;;5.45;2.40;;;26.10;95.40;;;;;;5032774;28;20042;-71
2022/05/19 12:36:07;;;;;;;3.85;2.20;;;25.90;95.30;;;;;;5033116;28;20033;-70
2022/05/19 12:38:42;;;;;;;3.85;1.98;;;25.70;94.90;;;;;;5032872;28;20490;-70
2022/05/19 12:41:10;;;;;;;3.33;2.08;;;25.60;96.10;;;;;;5032749;28;20043;-70
2022/05/19 12:43:45;;;;;;;3.83;1.73;;;25.40;95.60;;;;;;5032517;28;20053;-70
2022/05/19 12:46:34;;;;;;;4.47;1.65;;;25.30;96.60;;;;;;5032520;28;20045;-69
2022/05/19 12:49:31;;;;;;;4.88;1.80;;;25.20;97.60;;;;;;5032195;28;20037;-69
2022/05/19 12:52:09;;;;;;;6.20;2.60;;;25.00;99.90;;;;;;5012857;28;20513;-69
2022/05/19 12:54:36;;;;;;;14.77;3.97;;;24.90;99.90;;;;;;5032331;28;20041;-69
2022/05/19 12:57:26;;;;;;;9.30;3.10;;;24.60;99.90;;;;;;5032229;28;20046;-69
2022/05/19 13:00:11;;;;;;;14.45;4.38;;;24.40;99.90;;;;;;5032238;28;20038;-69
2022/05/19 13:03:02;;;;;;;6.93;3.47;;;24.00;99.90;;;;;;5032959;28;20099;-69
2022/05/19 13:05:34;;;;;;;10.73;3.35;;;23.70;99.90;;;;;;5032124;28;20049;-69
2022/05/19 13:08:39;;;;;;;8.43;3.23;;;23.40;99.90;;;;;;5032031;28;20055;-69
2022/05/19 13:11:11;;;;;;;8.25;2.90;;;23.10;99.90;;;;;;5030381;28;20088;-69
2022/05/19 13:13:47;;;;;;;9.25;4.00;;;22.90;99.90;;;;;;5032220;28;20077;-69
2022/05/19 13:16:24;;;;;;;9.82;4.55;;;22.50;99.90;;;;;;5031997;28;20409;-68